• Join FlightAware (Why Join?)
  • Login
  • US Flag 
07:42AM EST


 

Airport Tracker/Info


-or-


 

Live Flight TrackerFlight Track Log ✈ CTL369 ✈ 26-Jul-2013 ✈ KBKL - KHAO

Flight Track Log - Related Links

Times and Time Zones

All times are in EDT time to prevent confusion due to time zone crossing. See the CTL369 flight status page for this flight to view local times or setup timezone preferences in your user account.

Time Position Orientation Groundspeed Altitude Reporting Facility
EDT Latitude Longitude Course Direction KTS MPH feet Rate Location/Type
10:04PM 41.5294 -81.6678 348° North 84 97 1,200  Level Cleveland Center
10:04PM 41.5503 -81.6736 348° North 126 145 1,900 840 Climbing Cleveland Center
10:05PM 41.5794 -81.6850 344° North 140 161 2,600 480 Climbing Cleveland Center
10:06PM 41.5933 -81.7436 288° West 143 165 3,000 120 Climbing Cleveland Center
10:08PM 41.5950 -81.8075 272° West 168 193 3,000  Level Cleveland Center
10:08PM 41.5903 -81.8547 262° West 157 181 3,000  Level Cleveland Center
10:10PM 41.5811 -81.9294 261° West 157 181 3,100 120 Climbing Cleveland Center
10:11PM 41.5742 -81.9875 261° West 158 182 3,300 480 Climbing Cleveland Center
10:12PM 41.5672 -82.0292 257° West 131 151 4,000 780 Climbing Cleveland Center
10:13PM 41.5625 -82.0706 261° West 122 140 4,800 780 Climbing Cleveland Center
10:13PM 41.5392 -82.1006 224° Southwest 114 131 5,600 600 Climbing Cleveland Center
10:15PM 41.5097 -82.1331 220° Southwest 127 146 6,100 180 Climbing Cleveland Center
10:15PM 41.4842 -82.1603 219° Southwest 154 177 6,000  Descending Cleveland Center
10:17PM 41.4525 -82.1956 220° Southwest 148 170 6,100  Climbing Cleveland Center
10:18PM 41.4206 -82.2361 224° Southwest 152 175 6,000  Descending Cleveland Center
10:19PM 41.3889 -82.2742 222° Southwest 148 170 6,100  Climbing Cleveland Center
10:21PM 41.3194 -82.3352 213° Southwest  Level FlightAware Approximate
10:28PM 41.0766 -82.5612 219° Southwest  Level FlightAware Approximate
10:29PM 41.0435 -82.5963 219° Southwest  Level FlightAware Approximate
10:30PM 41.0105 -82.6312 219° Southwest  Level FlightAware Approximate
10:31PM 40.9774 -82.6662 219° Southwest  Level FlightAware Approximate
10:32PM 40.9443 -82.7011 219° Southwest  Level FlightAware Approximate
10:33PM 40.9112 -82.7360 219° Southwest  Level FlightAware Approximate
10:34PM 40.8781 -82.7708 219° Southwest  Level FlightAware Approximate
10:35PM 40.8450 -82.8056 218° Southwest  Level FlightAware Approximate
10:36PM 40.8118 -82.8404 218° Southwest  Level FlightAware Approximate
10:37PM 40.7787 -82.8752 218° Southwest  Level FlightAware Approximate
10:37PM 40.7794 -82.9653 218° Southwest 158 182 6,100  Level Indianapolis Center
10:38PM 40.7455 -82.9099 218° Southwest  Level FlightAware Approximate
10:38PM 40.7469 -83.0017 220° Southwest 156 180 6,000  Level Indianapolis Center
10:39PM 40.7124 -82.9445 218° Southwest  Level FlightAware Approximate
10:39PM 40.7139 -83.0400 221° Southwest 156 180 6,000  Level Indianapolis Center
10:40PM 40.6792 -82.9792 218° Southwest  Level FlightAware Approximate
10:40PM 40.6800 -83.0756 219° Southwest 155 178 6,100  Level Indianapolis Center
10:41PM 40.6460 -83.0138 218° Southwest  Level FlightAware Approximate
10:41PM 40.6481 -83.1144 223° Southwest 155 178 6,000  Level Indianapolis Center
10:42PM 40.6128 -83.0483 218° Southwest  Level FlightAware Approximate
10:42PM 40.6167 -83.1533 223° Southwest 154 177 6,100  Level Indianapolis Center
10:43PM 40.5796 -83.0829 218° Southwest  Level FlightAware Approximate
10:43PM 40.5831 -83.1897 219° Southwest 154 177 6,000  Level Indianapolis Center
10:44PM 40.5497 -83.2261 220° Southwest 154 177 6,000  Level Indianapolis Center
10:45PM 40.5164 -83.2636 221° Southwest 155 178 6,000  Level Indianapolis Center
10:46PM 40.4886 -83.2936 219° Southwest 152 175 6,000  Level Indianapolis Center
10:47PM 40.4556 -83.3294 220° Southwest 155 178 6,000  Level Indianapolis Center
10:48PM 40.4228 -83.3653 220° Southwest 155 178 6,000  Level Indianapolis Center
10:49PM 40.3872 -83.4061 221° Southwest 158 182 6,000  Level Indianapolis Center
10:50PM 40.3542 -83.4417 219° Southwest 158 182 6,000  Level Indianapolis Center
10:51PM 40.3189 -83.4797 219° Southwest 157 181 6,000  Level Indianapolis Center
10:52PM 40.2878 -83.5183 223° Southwest 155 178 6,000  Level Indianapolis Center
10:53PM 40.2547 -83.5539 219° Southwest 157 181 6,000  Level Indianapolis Center
10:54PM 40.2214 -83.5922 221° Southwest 158 182 6,000  Level Indianapolis Center
10:55PM 40.1861 -83.6300 219° Southwest 156 180 6,000  Level Indianapolis Center
10:56PM 40.1578 -83.6608 220° Southwest 157 181 6,000  Level Indianapolis Center
10:57PM 40.1222 -83.7011 221° Southwest 156 180 6,000  Level Indianapolis Center
10:58PM 40.0842 -83.7439 221° Southwest 157 181 6,000  Level Indianapolis Center
10:59PM 40.0558 -83.7747 220° Southwest 156 180 6,000 60 Level Indianapolis Center
11:00PM 40.0422 -83.7881 217° Southwest 157 181 6,100  Climbing Indianapolis Center
11:00PM 40.0208 -83.8097 218° Southwest 159 183 6,000 -120 Descending Indianapolis Center
11:01PM 40.0081 -83.8250 222° Southwest 158 182 6,000  Level Indianapolis Center
11:01PM 39.9894 -83.8481 224° Southwest 160 184 6,000  Level Indianapolis Center
11:02PM 39.9739 -83.8628 216° Southwest 159 183 6,000 60 Level Indianapolis Center
11:02PM 39.9561 -83.8858 225° Southwest 160 184 6,100  Climbing Indianapolis Center
11:03PM 39.9400 -83.9014 217° Southwest 160 184 6,000 -240 Descending Indianapolis Center
11:03PM 39.9203 -83.9261 224° Southwest 157 181 5,900 -240 Descending Indianapolis Center
11:04PM 39.9069 -83.9394 217° Southwest 159 183 5,800 -600 Descending Indianapolis Center
11:05PM 39.8697 -83.9789 219° Southwest 164 189 5,000 -720 Descending Indianapolis Center
11:06PM 39.8319 -84.0219 221° Southwest 172 198 4,400 -540 Descending Indianapolis Center
11:07PM 39.7933 -84.0636 220° Southwest 177 204 4,000 -180 Descending Indianapolis Center
11:08PM 39.7642 -84.0925 217° Southwest 153 176 4,100  Climbing Indianapolis Center
11:09PM 39.7308 -84.1303 221° Southwest 159 183 4,000 -60 Descending Indianapolis Center
11:10PM 39.6867 -84.1803 221° Southwest 158 182 4,000  Level Indianapolis Center
11:11PM 39.6519 -84.2175 220° Southwest 158 182 4,000  Level Indianapolis Center
11:12PM 39.6186 -84.2533 220° Southwest 157 181 4,000  Level Indianapolis Center
11:13PM 39.5853 -84.2883 219° Southwest 155 178 4,000 -180 Level Indianapolis Center
11:14PM 39.5489 -84.3208 215° Southwest 155 178 3,700 -420 Descending Indianapolis Center
11:15PM 39.5017 -84.3406 198° South 164 189 3,200 -540 Descending Indianapolis Center
11:16PM 39.4564 -84.3589 197° South 169 194 2,700 -300 Descending Indianapolis Center
11:17PM 39.4111 -84.3775 198° South 168 193 2,600 -120 Descending Indianapolis Center
11:19PM 39.3880 -84.4481 218° Southwest  Level Estimated
11:26PM 39.3500 -84.5167 229° Southwest  Level FlightAware Approximate
11:27PM 39.3638 -84.5219 229° Southwest  Level Estimated